sensor_id;sensor_type;location;lat;lon;timestamp;pressure;altitude;pressure_sealevel;temperature;humidity
45403;BME280;47427;51.976;5.326;2023-06-24T00:01:52;102384.41;;;18.43;100.00
45403;BME280;47427;51.976;5.326;2023-06-24T00:05:15;102388.00;;;18.44;100.00
45403;BME280;47427;51.976;5.326;2023-06-24T00:08:40;102387.03;;;18.40;100.00
45403;BME280;47427;51.976;5.326;2023-06-24T00:12:27;102394.91;;;18.35;100.00
45403;BME280;47427;51.976;5.326;2023-06-24T00:15:49;102398.34;;;18.30;100.00
45403;BME280;47427;51.976;5.326;2023-06-24T00:19:10;102400.00;;;18.25;100.00
45403;BME280;47427;51.976;5.326;2023-06-24T00:22:40;102411.47;;;18.22;100.00
45403;BME280;47427;51.976;5.326;2023-06-24T00:26:05;102402.56;;;18.20;100.00
45403;BME280;47427;51.976;5.326;2023-06-24T00:29:54;102403.41;;;18.17;100.00
45403;BME280;47427;51.976;5.326;2023-06-24T00:33:41;102398.19;;;18.21;100.00
45403;BME280;47427;51.976;5.326;2023-06-24T00:37:31;102410.47;;;18.15;100.00
45403;BME280;47427;51.976;5.326;2023-06-24T00:40:55;102403.25;;;18.08;100.00
45403;BME280;47427;51.976;5.326;2023-06-24T00:44:17;102399.59;;;18.03;100.00
45403;BME280;47427;51.976;5.326;2023-06-24T00:47:41;102394.13;;;17.95;100.00
45403;BME280;47427;51.976;5.326;2023-06-24T00:51:05;102400.34;;;17.96;100.00
45403;BME280;47427;51.976;5.326;2023-06-24T00:54:31;102405.59;;;17.93;100.00
45403;BME280;47427;51.976;5.326;2023-06-24T00:57:56;102406.44;;;17.90;100.00
45403;BME280;47427;51.976;5.326;2023-06-24T01:01:20;102409.91;;;17.88;100.00
45403;BME280;47427;51.976;5.326;2023-06-24T01:04:45;102398.25;;;17.81;100.00
45403;BME280;47427;51.976;5.326;2023-06-24T01:08:10;102396.34;;;17.77;100.00
45403;BME280;47427;51.976;5.326;2023-06-24T01:12:01;102392.69;;;17.70;100.00
45403;BME280;47427;51.976;5.326;2023-06-24T01:15:25;102393.41;;;17.63;100.00
45403;BME280;47427;51.976;5.326;2023-06-24T01:18:55;102394.19;;;17.58;100.00
45403;BME280;47427;51.976;5.326;2023-06-24T01:31:45;102383.19;;;17.41;100.00
45403;BME280;47427;51.976;5.326;2023-06-24T01:35:21;102379.56;;;17.37;100.00
45403;BME280;47427;51.976;5.326;2023-06-24T01:39:09;102376.00;;;17.37;100.00
45403;BME280;47427;51.976;5.326;2023-06-24T01:42:35;102382.13;;;17.32;100.00
45403;BME280;47427;51.976;5.326;2023-06-24T01:45:59;102376.66;;;17.26;100.00
45403;BME280;47427;51.976;5.326;2023-06-24T01:49:22;102373.91;;;17.22;100.00
45403;BME280;47427;51.976;5.326;2023-06-24T01:52:45;102374.66;;;17.16;99.06
45403;BME280;47427;51.976;5.326;2023-06-24T01:56:15;102369.41;;;17.18;97.24
45403;BME280;47427;51.976;5.326;2023-06-24T01:59:42;102367.63;;;17.17;95.53
45403;BME280;47427;51.976;5.326;2023-06-24T02:03:07;102373.75;;;17.16;95.02
45403;BME280;47427;51.976;5.326;2023-06-24T02:06:30;102369.22;;;17.11;94.97
45403;BME280;47427;51.976;5.326;2023-06-24T02:09:54;102369.16;;;17.07;94.85
45403;BME280;47427;51.976;5.326;2023-06-24T02:13:42;102368.22;;;17.05;93.58
45403;BME280;47427;51.976;5.326;2023-06-24T02:17:11;102360.09;;;16.99;93.29
45403;BME280;47427;51.976;5.326;2023-06-24T02:20:36;102365.31;;;16.94;94.04
45403;BME280;47427;51.976;5.326;2023-06-24T02:24:06;102370.50;;;16.89;94.76
45403;BME280;47427;51.976;5.326;2023-06-24T02:27:56;102360.59;;;16.82;94.93
45403;BME280;47427;51.976;5.326;2023-06-24T02:31:43;102345.41;;;16.77;95.05
45403;BME280;47427;51.976;5.326;2023-06-24T02:35:30;102353.16;;;16.69;95.90
45403;BME280;47427;51.976;5.326;2023-06-24T02:38:54;102360.13;;;16.65;96.51
45403;BME280;47427;51.976;5.326;2023-06-24T02:42:19;102349.31;;;16.58;97.19
45403;BME280;47427;51.976;5.326;2023-06-24T02:45:41;102366.91;;;16.54;97.69
45403;BME280;47427;51.976;5.326;2023-06-24T02:49:03;102358.84;;;16.50;97.82
45403;BME280;47427;51.976;5.326;2023-06-24T02:52:52;102356.00;;;16.42;98.37
45403;BME280;47427;51.976;5.326;2023-06-24T02:56:17;102351.47;;;16.38;98.82
45403;BME280;47427;51.976;5.326;2023-06-24T02:59:42;102342.47;;;16.31;98.89
45403;BME280;47427;51.976;5.326;2023-06-24T03:03:07;102346.75;;;16.26;99.58
45403;BME280;47427;51.976;5.326;2023-06-24T03:06:32;102347.50;;;16.20;99.52
45403;BME280;47427;51.976;5.326;2023-06-24T03:09:58;102338.53;;;16.17;100.00
45403;BME280;47427;51.976;5.326;2023-06-24T03:13:20;102347.38;;;16.16;100.00
45403;BME280;47427;51.976;5.326;2023-06-24T03:16:50;102349.91;;;16.13;100.00
45403;BME280;47427;51.976;5.326;2023-06-24T03:20:15;102348.97;;;16.11;100.00
45403;BME280;47427;51.976;5.326;2023-06-24T03:23:37;102353.28;;;16.07;100.00
45403;BME280;47427;51.976;5.326;2023-06-24T03:27:26;102368.22;;;16.05;100.00
45403;BME280;47427;51.976;5.326;2023-06-24T03:31:14;102362.00;;;16.03;100.00
45403;BME280;47427;51.976;5.326;2023-06-24T03:35:02;102362.78;;;15.99;100.00
45403;BME280;47427;51.976;5.326;2023-06-24T03:38:24;102361.88;;;15.98;100.00
45403;BME280;47427;51.976;5.326;2023-06-24T03:41:46;102365.34;;;15.96;100.00
45403;BME280;47427;51.976;5.326;2023-06-24T03:45:10;102358.22;;;15.95;100.00
45403;BME280;47427;51.976;5.326;2023-06-24T03:48:32;102360.94;;;15.96;100.00
45403;BME280;47427;51.976;5.326;2023-06-24T03:51:59;102358.28;;;15.96;100.00
45403;BME280;47427;51.976;5.326;2023-06-24T03:55:21;102362.69;;;15.96;100.00
45403;BME280;47427;51.976;5.326;2023-06-24T03:58:46;102364.38;;;15.94;100.00
45403;BME280;47427;51.976;5.326;2023-06-24T04:02:07;102357.25;;;15.91;100.00
45403;BME280;47427;51.976;5.326;2023-06-24T04:05:29;102367.94;;;15.94;100.00
45403;BME280;47427;51.976;5.326;2023-06-24T04:08:50;102372.34;;;15.94;100.00
45403;BME280;47427;51.976;5.326;2023-06-24T04:12:38;102376.81;;;15.96;100.00
45403;BME280;47427;51.976;5.326;2023-06-24T04:16:00;102375.03;;;15.95;100.00
45403;BME280;47427;51.976;5.326;2023-06-24T04:19:25;102375.03;;;15.95;100.00
45403;BME280;47427;51.976;5.326;2023-06-24T04:22:49;102370.56;;;15.94;100.00
45403;BME280;47427;51.976;5.326;2023-06-24T04:26:11;102383.88;;;15.97;100.00
45403;BME280;47427;51.976;5.326;2023-06-24T04:29:33;102380.50;;;16.01;100.00
45403;BME280;47427;51.976;5.326;2023-06-24T04:32:57;102379.75;;;16.07;100.00
45403;BME280;47427;51.976;5.326;2023-06-24T04:36:22;102382.53;;;16.12;100.00
45403;BME280;47427;51.976;5.326;2023-06-24T04:39:44;102377.47;;;16.19;100.00
45403;BME280;47427;51.976;5.326;2023-06-24T04:43:05;102368.75;;;16.23;100.00
45403;BME280;47427;51.976;5.326;2023-06-24T04:46:54;102378.81;;;16.37;100.00
45403;BME280;47427;51.976;5.326;2023-06-24T04:50:15;102375.69;;;16.53;100.00
45403;BME280;47427;51.976;5.326;2023-06-24T04:53:37;102373.19;;;16.58;100.00
45403;BME280;47427;51.976;5.326;2023-06-24T04:56:58;102375.88;;;16.59;99.76
45403;BME280;47427;51.976;5.326;2023-06-24T05:00:20;102381.31;;;16.64;99.66
45403;BME280;47427;51.976;5.326;2023-06-24T05:04:09;102382.66;;;16.81;98.60
45403;BME280;47427;51.976;5.326;2023-06-24T05:07:31;102388.41;;;17.00;97.52
45403;BME280;47427;51.976;5.326;2023-06-24T05:10:52;102383.38;;;17.10;96.73
45403;BME280;47427;51.976;5.326;2023-06-24T05:14:16;102386.31;;;17.23;95.63
45403;BME280;47427;51.976;5.326;2023-06-24T05:17:42;102389.06;;;17.27;95.67
45403;BME280;47427;51.976;5.326;2023-06-24T05:21:28;102389.28;;;17.37;94.67
45403;BME280;47427;51.976;5.326;2023-06-24T05:25:20;102390.38;;;17.45;94.32
45403;BME280;47427;51.976;5.326;2023-06-24T05:28:45;102390.59;;;17.55;94.40
45403;BME280;47427;51.976;5.326;2023-06-24T05:32:06;102389.06;;;17.67;94.09
45403;BME280;47427;51.976;5.326;2023-06-24T05:35:31;102394.63;;;17.79;93.90
45403;BME280;47427;51.976;5.326;2023-06-24T05:38:52;102403.00;;;17.96;93.17
45403;BME280;47427;51.976;5.326;2023-06-24T05:42:16;102407.72;;;18.11;92.35
45403;BME280;47427;51.976;5.326;2023-06-24T05:46:03;102399.22;;;18.30;91.29
45403;BME280;47427;51.976;5.326;2023-06-24T05:49:27;102403.00;;;18.43;90.97
45403;BME280;47427;51.976;5.326;2023-06-24T05:52:54;102404.13;;;18.56;90.57
45403;BME280;47427;51.976;5.326;2023-06-24T05:56:15;102397.31;;;18.70;89.06
45403;BME280;47427;51.976;5.326;2023-06-24T05:59:41;102397.53;;;18.81;88.10
45403;BME280;47427;51.976;5.326;2023-06-24T06:03:28;102401.22;;;18.91;87.76
45403;BME280;47427;51.976;5.326;2023-06-24T06:07:15;102397.91;;;19.04;86.80
45403;BME280;47427;51.976;5.326;2023-06-24T06:11:02;102394.63;;;19.20;86.90
45403;BME280;47427;51.976;5.326;2023-06-24T06:14:24;102408.22;;;19.40;85.95
45403;BME280;47427;51.976;5.326;2023-06-24T06:17:46;102405.69;;;19.48;85.44
45403;BME280;47427;51.976;5.326;2023-06-24T06:21:08;102414.66;;;19.55;84.88
45403;BME280;47427;51.976;5.326;2023-06-24T06:24:29;102421.91;;;19.65;84.58
45403;BME280;47427;51.976;5.326;2023-06-24T06:28:16;102415.97;;;19.84;83.44
45403;BME280;47427;51.976;5.326;2023-06-24T06:31:37;102408.09;;;19.94;83.01
45403;BME280;47427;51.976;5.326;2023-06-24T06:34:59;102413.56;;;20.07;82.43
45403;BME280;47427;51.976;5.326;2023-06-24T06:38:20;102423.44;;;20.14;82.49
45403;BME280;47427;51.976;5.326;2023-06-24T06:41:44;102425.31;;;20.22;81.91
45403;BME280;47427;51.976;5.326;2023-06-24T06:45:10;102414.84;;;20.39;81.09
45403;BME280;47427;51.976;5.326;2023-06-24T06:48:32;102416.72;;;20.49;80.52
45403;BME280;47427;51.976;5.326;2023-06-24T06:51:54;102409.72;;;20.57;79.94
45403;BME280;47427;51.976;5.326;2023-06-24T06:55:16;102415.22;;;20.74;80.51
45403;BME280;47427;51.976;5.326;2023-06-24T06:58:38;102409.94;;;20.83;78.93
45403;BME280;47427;51.976;5.326;2023-06-24T07:01:59;102410.03;;;20.92;78.27
45403;BME280;47427;51.976;5.326;2023-06-24T07:05:21;102419.94;;;21.07;77.88
45403;BME280;47427;51.976;5.326;2023-06-24T07:08:45;102414.75;;;21.27;77.18
45403;BME280;47427;51.976;5.326;2023-06-24T07:12:10;102415.75;;;21.38;76.33
45403;BME280;47427;51.976;5.326;2023-06-24T07:15:32;102418.50;;;21.52;75.63
45403;BME280;47427;51.976;5.326;2023-06-24T07:18:53;102425.69;;;21.64;73.04
45403;BME280;47427;51.976;5.326;2023-06-24T07:22:40;102423.03;;;21.66;73.55
45403;BME280;47427;51.976;5.326;2023-06-24T07:26:27;102424.03;;;21.89;71.61
45403;BME280;47427;51.976;5.326;2023-06-24T07:29:55;102424.97;;;21.93;70.19
45403;BME280;47427;51.976;5.326;2023-06-24T07:33:16;102438.38;;;22.14;67.38
45403;BME280;47427;51.976;5.326;2023-06-24T07:36:38;102429.41;;;21.97;66.80
45403;BME280;47427;51.976;5.326;2023-06-24T07:39:59;102429.53;;;22.23;69.39
45403;BME280;47427;51.976;5.326;2023-06-24T07:43:21;102431.38;;;22.53;69.18
45403;BME280;47427;51.976;5.326;2023-06-24T07:46:43;102429.63;;;22.73;67.85
45403;BME280;47427;51.976;5.326;2023-06-24T07:50:05;102427.00;;;23.01;65.49
45403;BME280;47427;51.976;5.326;2023-06-24T07:53:27;102423.31;;;23.70;64.38
45403;BME280;47427;51.976;5.326;2023-06-24T07:56:51;102463.59;;;26.09;55.42
45403;BME280;47427;51.976;5.326;2023-06-24T08:00:14;102517.84;;;28.52;47.46
45403;BME280;47427;51.976;5.326;2023-06-24T08:03:39;102533.16;;;30.30;43.95
45403;BME280;47427;51.976;5.326;2023-06-24T08:07:27;102594.44;;;30.63;38.70
45403;BME280;47427;51.976;5.326;2023-06-24T08:10:48;102571.94;;;31.47;38.48
45403;BME280;47427;51.976;5.326;2023-06-24T08:14:10;102607.75;;;32.59;35.52
45403;BME280;47427;51.976;5.326;2023-06-24T08:17:33;102616.69;;;33.08;34.45
45403;BME280;47427;51.976;5.326;2023-06-24T08:20:55;102622.63;;;33.62;33.90
45403;BME280;47427;51.976;5.326;2023-06-24T08:24:41;102640.53;;;34.70;31.69
45403;BME280;47427;51.976;5.326;2023-06-24T08:28:58;102637.00;;;35.25;32.28
45403;BME280;47427;51.976;5.326;2023-06-24T08:32:45;102652.31;;;35.46;29.93
45403;BME280;47427;51.976;5.326;2023-06-24T08:36:06;102641.28;;;35.30;30.90
45403;BME280;47427;51.976;5.326;2023-06-24T08:39:28;102648.50;;;36.20;29.43
45403;BME280;47427;51.976;5.326;2023-06-24T08:42:52;102659.63;;;36.67;29.18
45403;BME280;47427;51.976;5.326;2023-06-24T08:46:16;102677.84;;;37.48;27.88
45403;BME280;47427;51.976;5.326;2023-06-24T08:49:48;102705.31;;;38.53;25.88
45403;BME280;47427;51.976;5.326;2023-06-24T08:53:15;102713.91;;;39.33;24.55
45403;BME280;47427;51.976;5.326;2023-06-24T08:56:39;102722.94;;;40.29;24.30
45403;BME280;47427;51.976;5.326;2023-06-24T09:00:02;102748.50;;;40.82;22.33
45403;BME280;47427;51.976;5.326;2023-06-24T09:03:25;102741.34;;;40.92;23.03
45403;BME280;47427;51.976;5.326;2023-06-24T09:06:49;102741.13;;;40.44;23.73
45403;BME280;47427;51.976;5.326;2023-06-24T09:10:39;102742.41;;;40.39;23.82
45403;BME280;47427;51.976;5.326;2023-06-24T09:14:00;102728.94;;;41.24;23.28
45403;BME280;47427;51.976;5.326;2023-06-24T09:17:22;102751.38;;;42.62;21.36
45403;BME280;47427;51.976;5.326;2023-06-24T09:20:47;102738.28;;;41.82;22.10
45403;BME280;47427;51.976;5.326;2023-06-24T09:24:10;102755.53;;;43.24;20.17
45403;BME280;47427;51.976;5.326;2023-06-24T09:28:01;102766.94;;;43.19;20.08
45403;BME280;47427;51.976;5.326;2023-06-24T09:31:50;102740.06;;;43.21;21.29
45403;BME280;47427;51.976;5.326;2023-06-24T09:35:42;102761.47;;;43.95;19.48
45403;BME280;47427;51.976;5.326;2023-06-24T09:39:07;102763.31;;;44.06;19.56
45403;BME280;47427;51.976;5.326;2023-06-24T09:42:30;102752.00;;;45.12;19.06
45403;BME280;47427;51.976;5.326;2023-06-24T09:46:17;102770.28;;;44.63;19.34
45403;BME280;47427;51.976;5.326;2023-06-24T09:49:41;102784.75;;;45.28;17.61
45403;BME280;47427;51.976;5.326;2023-06-24T09:53:03;102766.47;;;45.56;18.14
45403;BME280;47427;51.976;5.326;2023-06-24T09:56:26;102768.78;;;45.80;17.78
45403;BME280;47427;51.976;5.326;2023-06-24T09:59:48;102764.97;;;45.12;18.46
45403;BME280;47427;51.976;5.326;2023-06-24T10:03:11;102747.84;;;44.87;19.03
45403;BME280;47427;51.976;5.326;2023-06-24T10:07:03;102769.38;;;46.23;16.63
45403;BME280;47427;51.976;5.326;2023-06-24T10:10:49;102733.88;;;45.88;18.47
45403;BME280;47427;51.976;5.326;2023-06-24T10:14:17;102739.88;;;47.06;17.90
45403;BME280;47427;51.976;5.326;2023-06-24T10:17:42;102762.88;;;47.08;17.31
45403;BME280;47427;51.976;5.326;2023-06-24T10:21:05;102761.06;;;46.33;17.50
45403;BME280;47427;51.976;5.326;2023-06-24T10:24:38;102765.97;;;46.48;17.39
45403;BME280;47427;51.976;5.326;2023-06-24T10:28:03;102750.88;;;48.07;17.02
45403;BME280;47427;51.976;5.326;2023-06-24T10:31:53;102775.75;;;47.91;16.09
45403;BME280;47427;51.976;5.326;2023-06-24T10:35:28;102762.31;;;48.22;15.95
45403;BME280;47427;51.976;5.326;2023-06-24T10:38:56;102743.75;;;48.13;17.10
45403;BME280;47427;51.976;5.326;2023-06-24T10:46:26;102760.34;;;47.96;15.46
45403;BME280;47427;51.976;5.326;2023-06-24T10:49:49;102760.97;;;47.54;15.59
45403;BME280;47427;51.976;5.326;2023-06-24T10:53:13;102742.94;;;47.76;15.97
45403;BME280;47427;51.976;5.326;2023-06-24T10:56:37;102756.84;;;48.91;14.93
45403;BME280;47427;51.976;5.326;2023-06-24T11:00:24;102737.31;;;48.56;16.19
45403;BME280;47427;51.976;5.326;2023-06-24T11:04:11;102747.50;;;48.48;15.57
45403;BME280;47427;51.976;5.326;2023-06-24T11:07:58;102738.81;;;47.35;15.91
45403;BME280;47427;51.976;5.326;2023-06-24T11:11:20;102720.28;;;47.71;16.31
45403;BME280;47427;51.976;5.326;2023-06-24T11:14:47;102712.34;;;48.21;15.72
45403;BME280;47427;51.976;5.326;2023-06-24T11:18:11;102722.00;;;48.95;15.21
45403;BME280;47427;51.976;5.326;2023-06-24T11:22:02;102712.84;;;49.11;16.21
45403;BME280;47427;51.976;5.326;2023-06-24T11:25:26;102709.88;;;49.20;14.74
45403;BME280;47427;51.976;5.326;2023-06-24T11:28:50;102706.44;;;48.84;15.74
45403;BME280;47427;51.976;5.326;2023-06-24T11:32:12;102699.28;;;48.47;16.03
45403;BME280;47427;51.976;5.326;2023-06-24T11:35:33;102688.78;;;47.35;17.14
45403;BME280;47427;51.976;5.326;2023-06-24T11:39:28;102685.03;;;47.44;16.13
45403;BME280;47427;51.976;5.326;2023-06-24T11:42:50;102702.88;;;49.08;14.66
45403;BME280;47427;51.976;5.326;2023-06-24T11:46:39;102707.88;;;48.28;15.21
45403;BME280;47427;51.976;5.326;2023-06-24T11:50:02;102691.00;;;48.55;15.71
45403;BME280;47427;51.976;5.326;2023-06-24T11:53:58;102697.41;;;49.49;14.96
45403;BME280;47427;51.976;5.326;2023-06-24T11:58:03;102680.75;;;48.30;15.90
45403;BME280;47427;51.976;5.326;2023-06-24T12:01:34;102683.75;;;49.21;15.01
45403;BME280;47427;51.976;5.326;2023-06-24T12:05:01;102689.69;;;49.27;15.21
45403;BME280;47427;51.976;5.326;2023-06-24T12:08:23;102662.88;;;48.75;16.03
45403;BME280;47427;51.976;5.326;2023-06-24T12:11:49;102681.47;;;47.70;15.69
45403;BME280;47427;51.976;5.326;2023-06-24T12:15:11;102615.50;;;41.89;20.39
45403;BME280;47427;51.976;5.326;2023-06-24T12:18:58;102584.13;;;44.90;18.63
45403;BME280;47427;51.976;5.326;2023-06-24T12:22:20;102619.13;;;47.19;16.76
45403;BME280;47427;51.976;5.326;2023-06-24T12:25:44;102639.88;;;45.94;17.41
45403;BME280;47427;51.976;5.326;2023-06-24T12:29:05;102591.91;;;41.50;21.14
45403;BME280;47427;51.976;5.326;2023-06-24T12:32:30;102545.22;;;42.40;20.71
45403;BME280;47427;51.976;5.326;2023-06-24T12:35:58;102586.78;;;45.31;18.18
45403;BME280;47427;51.976;5.326;2023-06-24T12:39:20;102598.91;;;46.53;17.64
45403;BME280;47427;51.976;5.326;2023-06-24T12:42:41;102630.03;;;47.02;16.07
45403;BME280;47427;51.976;5.326;2023-06-24T12:46:05;102611.59;;;46.83;16.66
45403;BME280;47427;51.976;5.326;2023-06-24T12:49:27;102624.91;;;47.43;16.13
45403;BME280;47427;51.976;5.326;2023-06-24T12:53:19;102618.00;;;47.11;16.27
45403;BME280;47427;51.976;5.326;2023-06-24T12:56:41;102618.59;;;48.03;15.94
45403;BME280;47427;51.976;5.326;2023-06-24T13:00:06;102620.03;;;48.42;16.08
45403;BME280;47427;51.976;5.326;2023-06-24T13:03:30;102625.59;;;47.63;15.85
45403;BME280;47427;51.976;5.326;2023-06-24T13:07:20;102605.38;;;44.80;17.72
45403;BME280;47427;51.976;5.326;2023-06-24T13:11:07;102582.34;;;43.13;18.96
45403;BME280;47427;51.976;5.326;2023-06-24T13:14:33;102563.25;;;44.96;18.34
45403;BME280;47427;51.976;5.326;2023-06-24T13:17:54;102563.94;;;45.95;17.21
45403;BME280;47427;51.976;5.326;2023-06-24T13:21:16;102571.25;;;46.52;17.71
45403;BME280;47427;51.976;5.326;2023-06-24T13:24:40;102532.63;;;42.58;21.19
45403;BME280;47427;51.976;5.326;2023-06-24T13:28:01;102531.31;;;44.32;19.29
45403;BME280;47427;51.976;5.326;2023-06-24T13:31:23;102540.41;;;45.99;17.93
45403;BME280;47427;51.976;5.326;2023-06-24T13:35:10;102546.44;;;46.22;18.46
45403;BME280;47427;51.976;5.326;2023-06-24T13:38:56;102550.44;;;44.85;18.72
45403;BME280;47427;51.976;5.326;2023-06-24T13:42:18;102544.88;;;45.53;18.31
45403;BME280;47427;51.976;5.326;2023-06-24T13:45:39;102548.66;;;45.72;18.41
45403;BME280;47427;51.976;5.326;2023-06-24T13:49:01;102544.66;;;46.21;17.76
45403;BME280;47427;51.976;5.326;2023-06-24T13:52:23;102542.38;;;46.72;18.03
45403;BME280;47427;51.976;5.326;2023-06-24T13:55:45;102558.03;;;47.09;17.24
45403;BME280;47427;51.976;5.326;2023-06-24T13:59:31;102557.16;;;47.26;16.94
45403;BME280;47427;51.976;5.326;2023-06-24T14:02:53;102568.31;;;47.52;16.36
45403;BME280;47427;51.976;5.326;2023-06-24T14:06:19;102572.34;;;47.58;16.29
45403;BME280;47427;51.976;5.326;2023-06-24T14:09:41;102573.88;;;47.52;16.32
45403;BME280;47427;51.976;5.326;2023-06-24T14:13:03;102570.56;;;47.75;15.74
45403;BME280;47427;51.976;5.326;2023-06-24T14:16:50;102564.06;;;47.84;16.80
45403;BME280;47427;51.976;5.326;2023-06-24T14:20:12;102560.28;;;48.70;15.84
45403;BME280;47427;51.976;5.326;2023-06-24T14:23:36;102577.94;;;48.45;15.68
45403;BME280;47427;51.976;5.326;2023-06-24T14:26:58;102571.59;;;48.26;15.89
45403;BME280;47427;51.976;5.326;2023-06-24T14:30:19;102557.38;;;47.77;16.17
45403;BME280;47427;51.976;5.326;2023-06-24T14:34:06;102548.34;;;48.09;16.12
45403;BME280;47427;51.976;5.326;2023-06-24T14:37:56;102553.44;;;48.56;15.19
45403;BME280;47427;51.976;5.326;2023-06-24T14:41:24;102569.41;;;48.46;15.16
45403;BME280;47427;51.976;5.326;2023-06-24T14:44:46;102547.69;;;45.24;17.38
45403;BME280;47427;51.976;5.326;2023-06-24T14:48:08;102512.75;;;44.13;18.36
45403;BME280;47427;51.976;5.326;2023-06-24T14:51:29;102519.50;;;45.09;17.54
45403;BME280;47427;51.976;5.326;2023-06-24T14:54:51;102512.50;;;46.01;17.55
45403;BME280;47427;51.976;5.326;2023-06-24T14:58:12;102505.63;;;44.70;18.28
45403;BME280;47427;51.976;5.326;2023-06-24T15:01:36;102494.69;;;44.69;18.23
45403;BME280;47427;51.976;5.326;2023-06-24T15:05:03;102493.34;;;45.60;17.51
45403;BME280;47427;51.976;5.326;2023-06-24T15:08:25;102505.91;;;46.39;17.30
45403;BME280;47427;51.976;5.326;2023-06-24T15:11:52;102508.69;;;47.29;16.40
45403;BME280;47427;51.976;5.326;2023-06-24T15:15:14;102524.13;;;47.05;16.42
45403;BME280;47427;51.976;5.326;2023-06-24T15:19:01;102514.00;;;47.04;16.28
45403;BME280;47427;51.976;5.326;2023-06-24T15:22:48;102501.97;;;45.57;17.94
45403;BME280;47427;51.976;5.326;2023-06-24T15:26:35;102474.03;;;43.31;19.12
45403;BME280;47427;51.976;5.326;2023-06-24T15:30:22;102449.84;;;43.23;19.50
45403;BME280;47427;51.976;5.326;2023-06-24T15:34:11;102453.75;;;43.72;19.42
45403;BME280;47427;51.976;5.326;2023-06-24T15:37:33;102458.44;;;44.12;18.86
45403;BME280;47427;51.976;5.326;2023-06-24T15:40:54;102446.13;;;43.95;18.89
45403;BME280;47427;51.976;5.326;2023-06-24T15:44:16;102444.97;;;43.36;19.46
45403;BME280;47427;51.976;5.326;2023-06-24T15:47:38;102430.66;;;43.10;19.34
45403;BME280;47427;51.976;5.326;2023-06-24T15:51:00;102423.38;;;42.56;20.67
45403;BME280;47427;51.976;5.326;2023-06-24T15:54:29;102422.59;;;42.65;20.22
45403;BME280;47427;51.976;5.326;2023-06-24T15:57:51;102427.44;;;42.73;19.86
45403;BME280;47427;51.976;5.326;2023-06-24T16:01:37;102426.97;;;42.13;20.09
45403;BME280;47427;51.976;5.326;2023-06-24T16:05:24;102391.31;;;39.75;22.45
45403;BME280;47427;51.976;5.326;2023-06-24T16:08:49;102362.03;;;37.76;25.21
45403;BME280;47427;51.976;5.326;2023-06-24T16:12:13;102310.75;;;36.32;27.28
45403;BME280;47427;51.976;5.326;2023-06-24T16:15:35;102286.91;;;35.05;28.82
45403;BME280;47427;51.976;5.326;2023-06-24T16:18:57;102261.75;;;34.48;29.60
45403;BME280;47427;51.976;5.326;2023-06-24T16:22:43;102249.13;;;34.10;30.12
45403;BME280;47427;51.976;5.326;2023-06-24T16:26:30;102228.72;;;33.26;31.73
45403;BME280;47427;51.976;5.326;2023-06-24T16:29:57;102205.94;;;33.29;31.83
45403;BME280;47427;51.976;5.326;2023-06-24T16:33:19;102201.22;;;33.32;31.68
45403;BME280;47427;51.976;5.326;2023-06-24T16:36:40;102194.97;;;33.11;32.09
45403;BME280;47427;51.976;5.326;2023-06-24T16:40:02;102179.91;;;32.65;31.98
45403;BME280;47427;51.976;5.326;2023-06-24T16:43:26;102186.38;;;31.99;32.64
45403;BME280;47427;51.976;5.326;2023-06-24T16:46:48;102171.53;;;31.86;33.28
45403;BME280;47427;51.976;5.326;2023-06-24T16:50:11;102159.47;;;31.71;33.85
45403;BME280;47427;51.976;5.326;2023-06-24T16:53:33;102150.69;;;31.42;34.09
45403;BME280;47427;51.976;5.326;2023-06-24T16:57:19;102157.72;;;31.24;33.90
45403;BME280;47427;51.976;5.326;2023-06-24T17:01:06;102140.81;;;31.18;34.17
45403;BME280;47427;51.976;5.326;2023-06-24T17:04:28;102148.88;;;31.19;34.16
45403;BME280;47427;51.976;5.326;2023-06-24T17:07:49;102143.72;;;31.13;34.48
45403;BME280;47427;51.976;5.326;2023-06-24T17:11:11;102139.41;;;31.07;34.08
45403;BME280;47427;51.976;5.326;2023-06-24T17:14:33;102140.13;;;30.89;34.26
45403;BME280;47427;51.976;5.326;2023-06-24T17:18:20;102126.03;;;30.79;34.88
45403;BME280;47427;51.976;5.326;2023-06-24T17:22:09;102125.50;;;30.70;35.08
45403;BME280;47427;51.976;5.326;2023-06-24T17:25:37;102114.41;;;30.52;36.16
45403;BME280;47427;51.976;5.326;2023-06-24T17:28:58;102117.13;;;30.52;35.41
45403;BME280;47427;51.976;5.326;2023-06-24T17:32:20;102103.72;;;30.22;35.55
45403;BME280;47427;51.976;5.326;2023-06-24T17:35:44;102108.03;;;30.03;35.84
45403;BME280;47427;51.976;5.326;2023-06-24T17:39:05;102102.53;;;30.06;35.84
45403;BME280;47427;51.976;5.326;2023-06-24T17:42:52;102097.97;;;30.07;36.42
45403;BME280;47427;51.976;5.326;2023-06-24T17:46:18;102082.91;;;29.99;36.77
45403;BME280;47427;51.976;5.326;2023-06-24T17:49:39;102089.81;;;29.83;37.01
45403;BME280;47427;51.976;5.326;2023-06-24T17:53:01;102075.59;;;29.76;37.23
45403;BME280;47427;51.976;5.326;2023-06-24T17:56:23;102077.84;;;29.62;37.32
45403;BME280;47427;51.976;5.326;2023-06-24T17:59:45;102071.41;;;29.68;37.71
45403;BME280;47427;51.976;5.326;2023-06-24T18:03:09;102062.06;;;29.76;38.44
45403;BME280;47427;51.976;5.326;2023-06-24T18:06:30;102027.44;;;29.59;41.90
45403;BME280;47427;51.976;5.326;2023-06-24T18:09:53;102002.06;;;29.37;43.80
45403;BME280;47427;51.976;5.326;2023-06-24T18:13:17;101988.81;;;29.01;44.77
45403;BME280;47427;51.976;5.326;2023-06-24T18:16:47;101972.03;;;28.91;45.23
45403;BME280;47427;51.976;5.326;2023-06-24T18:20:10;101969.50;;;28.87;45.53
45403;BME280;47427;51.976;5.326;2023-06-24T18:23:32;101969.09;;;28.71;46.56